createdAt,value
2023-09-21T00:00:29.400Z,10.21
2023-09-21T00:02:33.100Z,10.21
2023-09-21T00:04:37.009Z,10.20
2023-09-21T00:06:40.985Z,10.17
2023-09-21T00:08:46.357Z,10.16
2023-09-21T00:10:51.811Z,10.16
2023-09-21T00:12:55.610Z,10.14
2023-09-21T00:14:59.382Z,10.11
2023-09-21T00:17:05.192Z,10.09
2023-09-21T00:19:11.703Z,10.07
2023-09-21T00:21:15.453Z,10.08
2023-09-21T00:23:18.154Z,10.07
2023-09-21T00:25:23.466Z,10.07
2023-09-21T00:27:30.066Z,10.06
2023-09-21T00:29:33.710Z,10.06
2023-09-21T00:31:37.278Z,10.05
2023-09-21T00:33:41.804Z,10.03
2023-09-21T00:35:46.178Z,10.02
2023-09-21T00:37:49.904Z,10.00
2023-09-21T00:39:53.805Z,9.98
2023-09-21T00:41:57.725Z,9.96
2023-09-21T00:44:09.531Z,9.96
2023-09-21T00:46:13.981Z,9.94
2023-09-21T00:48:23.491Z,9.93
2023-09-21T00:50:28.961Z,9.92
2023-09-21T00:52:32.427Z,9.90
2023-09-21T00:54:37.412Z,9.90
2023-09-21T00:56:41.767Z,9.88
2023-09-21T00:58:48.883Z,9.88
2023-09-21T01:00:53.550Z,9.87
2023-09-21T01:02:59.721Z,9.87
2023-09-21T01:05:07.217Z,9.85
2023-09-21T01:07:23.693Z,9.83
2023-09-21T01:09:27.425Z,9.83
2023-09-21T01:11:32.452Z,9.83
2023-09-21T01:13:37.127Z,9.85
2023-09-21T01:15:46.484Z,9.85
2023-09-21T01:17:50.504Z,9.86
2023-09-21T01:19:54.341Z,9.83
2023-09-21T01:22:04.779Z,9.82
2023-09-21T01:24:12.720Z,9.83
2023-09-21T01:26:17.737Z,9.82
2023-09-21T01:28:23.980Z,9.81
2023-09-21T01:30:29.535Z,9.81
2023-09-21T01:32:33.260Z,9.82
2023-09-21T01:34:37.488Z,9.81
2023-09-21T01:36:41.227Z,9.80
2023-09-21T01:38:47.519Z,9.79
2023-09-21T01:40:52.175Z,9.80
2023-09-21T01:42:55.899Z,9.80
2023-09-21T01:45:01.375Z,9.80
2023-09-21T01:47:05.161Z,9.81
2023-09-21T01:49:09.948Z,9.81
2023-09-21T01:51:13.528Z,9.82
2023-09-21T01:53:18.900Z,9.83
2023-09-21T01:55:22.235Z,9.83
2023-09-21T01:57:27.322Z,9.82
2023-09-21T01:59:32.161Z,9.82
2023-09-21T02:01:35.954Z,9.83
2023-09-21T02:03:39.527Z,9.83
2023-09-21T02:05:44.380Z,9.85
2023-09-21T02:07:48.895Z,9.85
2023-09-21T02:09:52.798Z,9.85
2023-09-21T02:11:56.170Z,9.85
2023-09-21T02:14:00.877Z,9.85
2023-09-21T02:16:04.599Z,9.85
2023-09-21T02:18:09.340Z,9.83
2023-09-21T02:20:15.546Z,9.83
2023-09-21T02:22:21.255Z,9.82
2023-09-21T02:24:26.849Z,9.83
2023-09-21T02:26:30.155Z,9.82
2023-09-21T02:28:33.267Z,9.82
2023-09-21T02:30:38.775Z,9.83
2023-09-21T02:32:44.186Z,9.85
2023-09-21T02:34:47.290Z,9.86
2023-09-21T02:36:54.183Z,9.87
2023-09-21T02:38:57.978Z,9.88
2023-09-21T02:41:01.793Z,9.89
2023-09-21T02:43:04.760Z,9.90
2023-09-21T02:45:11.279Z,9.92
2023-09-21T02:47:16.149Z,9.91
2023-09-21T02:49:19.732Z,9.93
2023-09-21T02:51:24.318Z,9.95
2023-09-21T02:53:28.477Z,9.97
2023-09-21T02:55:32.360Z,9.99
2023-09-21T02:57:34.725Z,10.01
2023-09-21T02:59:38.063Z,9.97
2023-09-21T03:01:40.700Z,9.98
2023-09-21T03:03:45.969Z,10.01
2023-09-21T03:05:50.774Z,10.04
2023-09-21T03:07:55.771Z,10.06
2023-09-21T03:10:00.066Z,10.08
2023-09-21T03:12:03.981Z,10.09
2023-09-21T03:14:10.000Z,10.07
2023-09-21T03:16:13.722Z,10.08
2023-09-21T03:18:18.097Z,10.07
2023-09-21T03:20:33.640Z,10.08
2023-09-21T03:22:36.967Z,10.11
2023-09-21T03:24:41.311Z,10.12
2023-09-21T03:26:46.366Z,10.12
2023-09-21T03:28:50.984Z,10.13
2023-09-21T03:30:57.731Z,10.14
2023-09-21T03:33:01.406Z,10.14
2023-09-21T03:35:06.972Z,10.13
2023-09-21T03:37:13.863Z,10.12
2023-09-21T03:39:19.360Z,10.12
2023-09-21T03:41:22.840Z,10.13
2023-09-21T03:43:27.148Z,10.14
2023-09-21T03:45:30.800Z,10.13
2023-09-21T03:47:35.081Z,10.14
2023-09-21T03:49:39.171Z,10.12
2023-09-21T03:51:42.898Z,10.11
2023-09-21T03:53:47.790Z,10.10
2023-09-21T03:55:50.816Z,10.10
2023-09-21T03:57:54.414Z,10.09
2023-09-21T03:59:59.344Z,10.07
2023-09-21T04:02:02.760Z,10.07
2023-09-21T04:04:10.839Z,10.06
2023-09-21T04:06:17.916Z,10.04
2023-09-21T04:08:21.266Z,10.01
2023-09-21T04:10:26.063Z,9.99
2023-09-21T04:12:28.396Z,9.95
2023-09-21T04:14:32.028Z,9.91
2023-09-21T04:16:35.873Z,9.89
2023-09-21T04:18:40.189Z,9.86
2023-09-21T04:20:46.103Z,9.82
2023-09-21T04:22:51.238Z,9.81
2023-09-21T04:24:54.811Z,9.78
2023-09-21T04:26:59.802Z,9.75
2023-09-21T04:29:04.852Z,9.72
2023-09-21T04:31:10.790Z,9.70
2023-09-21T04:33:14.516Z,9.66
2023-09-21T04:35:19.426Z,9.63
2023-09-21T04:37:23.023Z,9.60
2023-09-21T04:39:26.350Z,9.60
2023-09-21T04:41:31.413Z,9.58
2023-09-21T04:43:40.930Z,9.57
2023-09-21T04:45:50.136Z,9.53
2023-09-21T04:48:00.444Z,9.48
2023-09-21T04:50:06.970Z,9.44
2023-09-21T04:52:10.303Z,9.38
2023-09-21T04:54:14.631Z,9.34
2023-09-21T04:56:19.757Z,9.26
2023-09-21T04:58:24.806Z,9.21
2023-09-21T05:00:29.697Z,9.20
2023-09-21T05:02:32.642Z,9.22
2023-09-21T05:04:36.126Z,9.18
2023-09-21T05:06:39.458Z,9.09
2023-09-21T05:08:42.970Z,9.09
2023-09-21T05:10:46.690Z,9.07
2023-09-21T05:12:53.419Z,9.08
2023-09-21T05:14:58.831Z,9.08
2023-09-21T05:17:04.083Z,9.09
2023-09-21T05:19:07.458Z,9.09
2023-09-21T05:21:10.841Z,9.11
2023-09-21T05:23:14.670Z,9.11
2023-09-21T05:25:18.021Z,9.10
2023-09-21T05:27:22.621Z,9.10
2023-09-21T05:29:26.525Z,9.10
2023-09-21T05:31:29.921Z,9.11
2023-09-21T05:33:35.011Z,9.11
2023-09-21T05:35:38.767Z,9.14
2023-09-21T05:37:43.247Z,9.18
2023-09-21T05:39:47.358Z,9.21
2023-09-21T05:41:50.941Z,9.22
2023-09-21T05:43:54.407Z,9.24
2023-09-21T05:45:57.926Z,9.27
2023-09-21T05:48:01.338Z,9.29
2023-09-21T05:50:07.430Z,9.33
2023-09-21T05:52:13.756Z,9.35
2023-09-21T05:54:20.447Z,9.35
2023-09-21T05:56:23.887Z,9.34
2023-09-21T05:58:27.238Z,9.34
2023-09-21T06:00:31.356Z,9.34
2023-09-21T06:02:35.926Z,9.34
2023-09-21T06:04:40.725Z,9.34
2023-09-21T06:06:45.629Z,9.32
2023-09-21T06:08:50.046Z,9.28
2023-09-21T06:10:53.496Z,9.23
2023-09-21T06:12:57.207Z,9.20
2023-09-21T06:15:01.426Z,9.14
2023-09-21T06:17:07.020Z,9.10
2023-09-21T06:19:10.745Z,9.06
2023-09-21T06:21:14.234Z,9.06
2023-09-21T06:23:19.752Z,9.06
2023-09-21T06:25:23.216Z,9.07
2023-09-21T06:27:26.570Z,9.09
2023-09-21T06:29:29.880Z,9.09
2023-09-21T06:31:34.028Z,9.09
2023-09-21T06:33:37.571Z,9.11
2023-09-21T06:35:42.249Z,9.11
2023-09-21T06:37:45.549Z,9.14
2023-09-21T06:39:50.851Z,9.14
2023-09-21T06:41:54.238Z,9.19
2023-09-21T06:43:57.586Z,9.27
2023-09-21T06:46:00.877Z,9.43
2023-09-21T06:48:05.427Z,9.60
2023-09-21T06:50:10.359Z,9.74
2023-09-21T06:52:14.482Z,9.79
2023-09-21T06:54:18.067Z,9.82
2023-09-21T06:56:24.427Z,9.85
2023-09-21T06:58:28.535Z,9.86
2023-09-21T07:00:31.979Z,9.88
2023-09-21T07:02:35.364Z,9.92
2023-09-21T07:04:39.133Z,9.98
2023-09-21T07:06:43.281Z,10.02
2023-09-21T07:08:47.485Z,10.08
2023-09-21T07:10:51.322Z,10.12
2023-09-21T07:12:56.046Z,10.17
2023-09-21T07:15:00.291Z,10.24
2023-09-21T07:17:03.715Z,10.34
2023-09-21T07:19:07.089Z,10.42
2023-09-21T07:21:10.492Z,10.50
2023-09-21T07:23:13.966Z,10.56
2023-09-21T07:25:16.646Z,10.59
2023-09-21T07:27:20.079Z,10.65
2023-09-21T07:29:25.954Z,10.71
2023-09-21T07:31:29.317Z,10.76
2023-09-21T07:33:32.960Z,10.85
2023-09-21T07:35:37.770Z,10.93
2023-09-21T07:37:40.177Z,10.99
2023-09-21T07:39:43.587Z,11.04
2023-09-21T07:41:48.534Z,11.10
2023-09-21T07:43:52.099Z,11.17
2023-09-21T07:45:57.890Z,11.24
2023-09-21T07:48:01.398Z,11.29
2023-09-21T07:50:05.095Z,11.33
2023-09-21T07:52:09.589Z,11.33
2023-09-21T07:54:12.942Z,11.37
2023-09-21T07:56:17.895Z,11.40
2023-09-21T07:58:21.199Z,11.42
2023-09-21T08:00:24.671Z,11.45
2023-09-21T08:02:29.820Z,11.48
2023-09-21T08:04:32.346Z,11.54
2023-09-21T08:06:36.134Z,11.61
2023-09-21T08:08:39.792Z,11.69
2023-09-21T08:10:43.218Z,11.77
2023-09-21T08:12:46.504Z,11.87
2023-09-21T08:14:48.877Z,11.96
2023-09-21T08:16:55.018Z,12.01
2023-09-21T08:19:02.989Z,12.11
2023-09-21T08:21:06.623Z,12.20
2023-09-21T08:23:10.327Z,12.31
2023-09-21T08:25:14.168Z,12.43
2023-09-21T08:27:16.619Z,12.53
2023-09-21T08:29:22.757Z,12.63
2023-09-21T08:31:26.840Z,12.71
2023-09-21T08:33:30.308Z,12.78
2023-09-21T08:35:35.272Z,12.84
2023-09-21T08:37:38.725Z,12.88
2023-09-21T08:39:44.227Z,12.90
2023-09-21T08:41:51.629Z,12.96
2023-09-21T08:43:56.012Z,13.01
2023-09-21T08:46:00.153Z,13.10
2023-09-21T08:48:04.351Z,13.16
2023-09-21T08:50:09.204Z,13.19
2023-09-21T08:52:15.106Z,13.31
2023-09-21T08:54:19.101Z,13.40
2023-09-21T08:56:23.131Z,13.46
2023-09-21T08:58:28.879Z,13.51
2023-09-21T09:00:32.933Z,13.57
2023-09-21T09:02:37.677Z,13.66
2023-09-21T09:04:42.318Z,13.78
2023-09-21T09:06:45.802Z,13.84
2023-09-21T09:08:50.853Z,13.85
2023-09-21T09:10:55.214Z,13.87
2023-09-21T09:13:07.072Z,13.88
2023-09-21T09:15:12.009Z,13.98
2023-09-21T09:17:17.402Z,14.07
2023-09-21T09:19:21.042Z,14.13
2023-09-21T09:21:24.709Z,14.20
2023-09-21T09:23:28.650Z,14.34
2023-09-21T09:25:34.105Z,14.47
2023-09-21T09:27:37.955Z,14.60
2023-09-21T09:29:49.710Z,14.71
2023-09-21T09:31:53.058Z,14.82
2023-09-21T09:33:58.606Z,14.89
2023-09-21T09:36:04.161Z,14.93
2023-09-21T09:38:11.202Z,15.00
2023-09-21T09:40:15.265Z,15.03
2023-09-21T09:42:20.689Z,15.13
2023-09-21T09:44:24.912Z,15.15
2023-09-21T09:46:29.230Z,15.13
2023-09-21T09:48:36.021Z,15.11
2023-09-21T09:50:43.154Z,15.12
2023-09-21T09:52:51.499Z,15.16
2023-09-21T09:54:57.523Z,15.11
2023-09-21T09:57:02.914Z,15.09
2023-09-21T09:59:10.614Z,15.13
2023-09-21T10:01:15.044Z,15.23
2023-09-21T10:03:19.293Z,15.40
2023-09-21T10:05:23.401Z,15.52
2023-09-21T10:07:26.825Z,15.61
2023-09-21T10:09:30.614Z,15.66
2023-09-21T10:11:34.166Z,15.68
2023-09-21T10:13:37.971Z,15.68
2023-09-21T10:15:45.787Z,15.72
2023-09-21T10:17:51.979Z,15.77
2023-09-21T10:20:16.450Z,15.65
2023-09-21T10:22:28.125Z,15.67
2023-09-21T10:24:32.469Z,15.74
2023-09-21T10:26:40.044Z,15.84
2023-09-21T10:28:46.966Z,15.95
2023-09-21T10:30:55.225Z,16.06
2023-09-21T10:32:59.443Z,16.01
2023-09-21T10:35:04.607Z,16.01
2023-09-21T10:37:12.201Z,15.97
2023-09-21T10:39:26.448Z,15.96
2023-09-21T10:41:32.102Z,16.01
2023-09-21T10:43:45.110Z,16.06
2023-09-21T10:45:58.949Z,16.12
2023-09-21T10:48:03.207Z,16.13
2023-09-21T10:50:08.379Z,16.16
2023-09-21T10:52:12.454Z,16.22
2023-09-21T10:54:16.168Z,16.26
2023-09-21T10:56:21.327Z,16.31
2023-09-21T10:58:25.827Z,16.27
2023-09-21T11:00:29.639Z,16.22
2023-09-21T11:02:37.409Z,16.21
2023-09-21T11:04:41.283Z,16.20
2023-09-21T11:06:46.721Z,16.14
2023-09-21T11:08:51.033Z,16.08
2023-09-21T11:10:55.404Z,16.10
2023-09-21T11:12:58.940Z,16.11
2023-09-21T11:15:02.566Z,16.07
2023-09-21T11:17:06.612Z,16.06
2023-09-21T11:19:12.387Z,16.10
2023-09-21T11:21:18.672Z,16.10
2023-09-21T11:23:22.706Z,16.13
2023-09-21T11:25:27.552Z,16.13
2023-09-21T11:27:30.475Z,16.08
2023-09-21T11:29:35.025Z,15.93
2023-09-21T11:31:38.859Z,15.74
2023-09-21T11:33:44.020Z,15.54
2023-09-21T11:35:49.591Z,15.38
2023-09-21T11:37:55.066Z,15.19
2023-09-21T11:39:57.672Z,15.08
2023-09-21T11:42:01.521Z,15.04
2023-09-21T11:44:07.437Z,15.02
2023-09-21T11:46:13.177Z,14.96
2023-09-21T11:48:17.160Z,14.87
2023-09-21T11:50:23.304Z,14.90
2023-09-21T11:52:29.173Z,15.01
2023-09-21T11:54:36.217Z,15.15
2023-09-21T11:56:42.202Z,15.27
2023-09-21T11:58:46.077Z,15.32
2023-09-21T12:00:54.868Z,15.35
2023-09-21T12:02:57.909Z,15.39
2023-09-21T12:05:01.857Z,15.44
2023-09-21T12:07:06.000Z,15.47
2023-09-21T12:09:14.765Z,15.53
2023-09-21T12:11:18.642Z,15.62
2023-09-21T12:13:22.494Z,15.62
2023-09-21T12:15:26.497Z,15.61
2023-09-21T12:17:31.735Z,15.62
2023-09-21T12:19:35.449Z,15.57
2023-09-21T12:21:39.722Z,15.60
2023-09-21T12:23:43.887Z,15.69
2023-09-21T12:25:49.472Z,15.79
2023-09-21T12:27:53.721Z,15.78
2023-09-21T12:29:57.574Z,15.80
2023-09-21T12:32:01.351Z,15.76
2023-09-21T12:34:05.416Z,15.67
2023-09-21T12:36:10.079Z,15.55
2023-09-21T12:38:13.823Z,15.44
2023-09-21T12:40:18.916Z,15.33
2023-09-21T12:42:24.490Z,15.25
2023-09-21T12:44:28.346Z,15.20
2023-09-21T12:46:33.486Z,15.20
2023-09-21T12:48:38.689Z,15.19
2023-09-21T12:50:42.346Z,15.17
2023-09-21T12:52:46.688Z,15.12
2023-09-21T12:54:50.435Z,15.09
2023-09-21T12:56:54.039Z,15.04
2023-09-21T12:59:02.871Z,14.99
2023-09-21T13:01:07.412Z,14.97
2023-09-21T13:03:14.495Z,14.94
2023-09-21T13:05:19.474Z,14.92
2023-09-21T13:07:25.041Z,14.95
2023-09-21T13:09:38.752Z,15.00
2023-09-21T13:11:53.023Z,15.07
2023-09-21T13:13:56.716Z,15.13
2023-09-21T13:16:06.182Z,15.20
2023-09-21T13:18:12.198Z,15.30
2023-09-21T13:20:19.744Z,15.38
2023-09-21T13:22:23.762Z,15.45
2023-09-21T13:24:27.574Z,15.46
2023-09-21T13:26:31.685Z,15.42
2023-09-21T13:28:36.174Z,15.38
2023-09-21T13:30:40.282Z,15.40
2023-09-21T13:32:45.653Z,15.37
2023-09-21T13:34:49.719Z,15.32
2023-09-21T13:36:53.594Z,15.27
2023-09-21T13:38:57.474Z,15.21
2023-09-21T13:41:01.351Z,15.18
2023-09-21T13:43:05.674Z,15.12
2023-09-21T13:45:11.653Z,15.05
2023-09-21T13:47:15.520Z,15.01
2023-09-21T13:49:22.156Z,15.02
2023-09-21T13:51:25.786Z,15.06
2023-09-21T13:53:29.799Z,15.06
2023-09-21T13:55:33.975Z,15.08
2023-09-21T13:57:37.999Z,15.08
2023-09-21T13:59:42.203Z,15.11
2023-09-21T14:01:46.037Z,15.14
2023-09-21T14:03:50.253Z,15.17
2023-09-21T14:05:55.974Z,15.20
2023-09-21T14:07:59.088Z,15.20
2023-09-21T14:10:07.757Z,15.20
2023-09-21T14:12:11.508Z,15.21
2023-09-21T14:14:15.203Z,15.24
2023-09-21T14:16:18.969Z,15.24
2023-09-21T14:18:22.697Z,15.26
2023-09-21T14:20:26.499Z,15.27
2023-09-21T14:22:30.588Z,15.28
2023-09-21T14:24:35.182Z,15.27
2023-09-21T14:26:39.790Z,15.23
2023-09-21T14:28:43.751Z,15.23
2023-09-21T14:30:48.254Z,15.23
2023-09-21T14:32:54.200Z,15.20
2023-09-21T14:34:58.150Z,15.20
2023-09-21T14:37:01.948Z,15.20
2023-09-21T14:39:07.131Z,15.20
2023-09-21T14:41:10.860Z,15.21
2023-09-21T14:43:14.980Z,15.19
2023-09-21T14:45:20.120Z,15.19
2023-09-21T14:47:24.346Z,15.18
2023-09-21T14:49:29.209Z,15.15
2023-09-21T14:51:33.498Z,15.12
2023-09-21T14:53:37.821Z,15.09
2023-09-21T14:55:43.016Z,15.07
2023-09-21T14:57:47.247Z,15.04
2023-09-21T14:59:51.056Z,15.05
2023-09-21T15:01:55.714Z,15.01
2023-09-21T15:03:59.773Z,15.00
2023-09-21T15:06:03.623Z,14.99
2023-09-21T15:08:13.473Z,14.97
2023-09-21T15:10:17.780Z,14.98
2023-09-21T15:12:22.932Z,14.98
2023-09-21T15:14:26.862Z,15.00
2023-09-21T15:16:29.659Z,15.03
2023-09-21T15:18:33.426Z,15.05
2023-09-21T15:20:37.313Z,15.03
2023-09-21T15:22:41.280Z,15.02
2023-09-21T15:24:45.183Z,15.00
2023-09-21T15:26:49.334Z,14.99
2023-09-21T15:28:54.605Z,14.98
2023-09-21T15:30:58.568Z,14.98
2023-09-21T15:33:03.807Z,14.98
2023-09-21T15:35:11.219Z,14.98
2023-09-21T15:37:15.894Z,14.96
2023-09-21T15:39:21.030Z,14.93
2023-09-21T15:41:25.307Z,14.87
2023-09-21T15:43:28.800Z,14.80
2023-09-21T15:45:34.236Z,14.74
2023-09-21T15:47:38.939Z,14.70
2023-09-21T15:49:42.998Z,14.69
2023-09-21T15:51:47.834Z,14.71
2023-09-21T15:53:51.515Z,14.76
2023-09-21T15:55:57.613Z,14.83
2023-09-21T15:58:03.341Z,14.92
2023-09-21T16:00:09.778Z,14.96
2023-09-21T16:02:18.015Z,15.00
2023-09-21T16:04:21.874Z,15.04
2023-09-21T16:06:26.099Z,15.05
2023-09-21T16:08:29.897Z,15.07
2023-09-21T16:10:33.512Z,15.07
2023-09-21T16:12:37.428Z,15.05
2023-09-21T16:14:41.136Z,15.03
2023-09-21T16:16:45.145Z,15.01
2023-09-21T16:18:50.563Z,14.98
2023-09-21T16:20:54.611Z,14.95
2023-09-21T16:22:58.526Z,14.88
2023-09-21T16:25:02.566Z,14.83
2023-09-21T16:27:06.642Z,14.79
2023-09-21T16:29:10.323Z,14.72
2023-09-21T16:31:14.113Z,14.69
2023-09-21T16:33:18.066Z,14.63
2023-09-21T16:35:23.358Z,14.61
2023-09-21T16:37:28.513Z,14.59
2023-09-21T16:39:32.577Z,14.58
2023-09-21T16:41:36.547Z,14.56
2023-09-21T16:43:40.580Z,14.56
2023-09-21T16:45:44.257Z,14.54
2023-09-21T16:47:49.339Z,14.54
2023-09-21T16:49:53.569Z,14.54
2023-09-21T16:52:00.052Z,14.53
2023-09-21T16:54:03.642Z,14.53
2023-09-21T16:56:07.321Z,14.52
2023-09-21T16:58:11.379Z,14.49
2023-09-21T17:00:15.887Z,14.46
2023-09-21T17:02:19.890Z,14.42
2023-09-21T17:04:24.587Z,14.36
2023-09-21T17:06:28.420Z,14.28
2023-09-21T17:08:33.512Z,14.24
2023-09-21T17:10:38.342Z,14.18
2023-09-21T17:12:42.170Z,14.16
2023-09-21T17:14:47.712Z,14.13
2023-09-21T17:16:51.314Z,14.11
2023-09-21T17:18:55.019Z,14.09
2023-09-21T17:20:59.601Z,14.06
2023-09-21T17:23:03.517Z,14.05
2023-09-21T17:25:11.154Z,14.04
2023-09-21T17:27:15.507Z,14.02
2023-09-21T17:29:18.440Z,14.02
2023-09-21T17:31:23.658Z,14.00
2023-09-21T17:33:27.769Z,14.00
2023-09-21T17:35:30.562Z,14.00
2023-09-21T17:37:34.864Z,14.00
2023-09-21T17:39:38.662Z,13.99
2023-09-21T17:41:43.844Z,13.97
2023-09-21T17:43:47.592Z,13.93
2023-09-21T17:45:50.314Z,13.91
2023-09-21T17:47:55.874Z,13.88
2023-09-21T17:50:00.253Z,13.86
2023-09-21T17:52:05.072Z,13.84
2023-09-21T17:54:09.944Z,13.82
2023-09-21T17:56:13.887Z,13.81
2023-09-21T17:58:19.287Z,13.77
2023-09-21T18:00:23.272Z,13.74
2023-09-21T18:02:27.704Z,13.70
2023-09-21T18:04:32.322Z,13.67
2023-09-21T18:06:36.955Z,13.65
2023-09-21T18:08:41.171Z,13.62
2023-09-21T18:10:45.110Z,13.60
2023-09-21T18:12:49.259Z,13.58
2023-09-21T18:14:54.419Z,13.54
2023-09-21T18:16:58.626Z,13.50
2023-09-21T18:19:02.557Z,13.47
2023-09-21T18:21:07.741Z,13.44
2023-09-21T18:23:13.083Z,13.41
2023-09-21T18:25:17.987Z,13.36
2023-09-21T18:27:21.418Z,13.31
2023-09-21T18:29:25.307Z,13.29
2023-09-21T18:31:29.606Z,13.25
2023-09-21T18:33:33.547Z,13.23
2023-09-21T18:35:37.660Z,13.19
2023-09-21T18:37:41.430Z,13.17
2023-09-21T18:39:46.434Z,13.13
2023-09-21T18:41:50.319Z,13.09
2023-09-21T18:43:54.159Z,13.07
2023-09-21T18:45:59.116Z,13.03
2023-09-21T18:48:05.181Z,13.00
2023-09-21T18:50:11.128Z,12.96
2023-09-21T18:52:13.706Z,12.93
2023-09-21T18:54:17.409Z,12.89
2023-09-21T18:56:23.840Z,12.85
2023-09-21T18:58:27.961Z,12.82
2023-09-21T19:00:32.046Z,12.79
2023-09-21T19:02:36.284Z,12.77
2023-09-21T19:04:42.728Z,12.74
2023-09-21T19:06:47.467Z,12.72
2023-09-21T19:08:51.384Z,12.71
2023-09-21T19:10:55.044Z,12.67
2023-09-21T19:12:58.023Z,12.66
2023-09-21T19:15:01.834Z,12.64
2023-09-21T19:17:06.037Z,12.63
2023-09-21T19:19:10.099Z,12.59
2023-09-21T19:21:15.766Z,12.59
2023-09-21T19:23:23.020Z,12.58
2023-09-21T19:25:26.830Z,12.56
2023-09-21T19:27:31.846Z,12.55
2023-09-21T19:29:35.900Z,12.56
2023-09-21T19:31:39.862Z,12.57
2023-09-21T19:33:42.930Z,12.57
2023-09-21T19:35:47.399Z,12.57
2023-09-21T19:37:54.534Z,12.56
2023-09-21T19:39:58.620Z,12.54
2023-09-21T19:42:02.332Z,12.52
2023-09-21T19:44:06.218Z,12.51
2023-09-21T19:46:10.253Z,12.49
2023-09-21T19:48:14.213Z,12.47
2023-09-21T19:50:18.612Z,12.46
2023-09-21T19:52:22.657Z,12.46
2023-09-21T19:54:28.849Z,12.45
2023-09-21T19:56:34.362Z,12.44
2023-09-21T19:58:38.477Z,12.44
2023-09-21T20:00:43.754Z,12.44
2023-09-21T20:02:48.492Z,12.43
2023-09-21T20:04:52.713Z,12.42
2023-09-21T20:06:56.717Z,12.42
2023-09-21T20:09:00.658Z,12.40
2023-09-21T20:11:12.015Z,12.40
2023-09-21T20:13:16.717Z,12.40
2023-09-21T20:15:20.531Z,12.39
2023-09-21T20:17:24.946Z,12.39
2023-09-21T20:19:29.105Z,12.37
2023-09-21T20:21:32.960Z,12.38
2023-09-21T20:23:37.066Z,12.37
2023-09-21T20:25:41.379Z,12.35
2023-09-21T20:27:46.805Z,12.35
2023-09-21T20:29:50.933Z,12.35
2023-09-21T20:31:55.038Z,12.34
2023-09-21T20:34:01.267Z,12.33
2023-09-21T20:36:05.739Z,12.31
2023-09-21T20:38:09.874Z,12.31
2023-09-21T20:40:14.090Z,12.31
2023-09-21T20:42:18.010Z,12.29
2023-09-21T20:44:24.323Z,12.29
2023-09-21T20:46:28.188Z,12.27
2023-09-21T20:48:32.290Z,12.25
2023-09-21T20:50:36.537Z,12.23
2023-09-21T20:52:40.622Z,12.23
2023-09-21T20:54:45.349Z,12.19
2023-09-21T20:56:49.276Z,12.18
2023-09-21T20:58:53.186Z,12.17
2023-09-21T21:00:59.225Z,12.16
2023-09-21T21:03:02.361Z,12.15
2023-09-21T21:05:06.982Z,12.12
2023-09-21T21:07:10.836Z,12.09
2023-09-21T21:09:14.794Z,12.07
2023-09-21T21:11:20.139Z,12.04
2023-09-21T21:13:24.252Z,12.03
2023-09-21T21:15:27.283Z,12.00
2023-09-21T21:17:34.207Z,11.98
2023-09-21T21:19:38.519Z,11.96
2023-09-21T21:21:42.524Z,11.93
2023-09-21T21:23:46.962Z,11.92
2023-09-21T21:25:51.537Z,11.89
2023-09-21T21:27:55.572Z,11.88
2023-09-21T21:29:59.467Z,11.86
2023-09-21T21:32:03.221Z,11.83
2023-09-21T21:34:08.605Z,11.82
2023-09-21T21:36:12.348Z,11.80
2023-09-21T21:38:16.261Z,11.79
2023-09-21T21:40:20.113Z,11.78
2023-09-21T21:42:24.390Z,11.78
2023-09-21T21:44:28.342Z,11.77
2023-09-21T21:46:32.386Z,11.76
2023-09-21T21:48:36.317Z,11.74
2023-09-21T21:50:41.689Z,11.74
2023-09-21T21:52:47.334Z,11.73
2023-09-21T21:54:51.034Z,11.69
2023-09-21T21:56:53.816Z,11.67
2023-09-21T21:58:57.668Z,11.65
2023-09-21T22:01:01.605Z,11.65
2023-09-21T22:03:06.000Z,11.65
2023-09-21T22:05:11.030Z,11.64
2023-09-21T22:07:16.327Z,11.64
2023-09-21T22:09:21.098Z,11.62
2023-09-21T22:11:24.625Z,11.60
2023-09-21T22:13:28.374Z,11.59
2023-09-21T22:15:34.881Z,11.56
2023-09-21T22:17:41.276Z,11.56
2023-09-21T22:19:45.703Z,11.54
2023-09-21T22:21:52.072Z,11.53
2023-09-21T22:23:57.499Z,11.52
2023-09-21T22:26:01.406Z,11.51
2023-09-21T22:28:05.827Z,11.50
2023-09-21T22:30:11.796Z,11.49
2023-09-21T22:32:15.421Z,11.49
2023-09-21T22:34:19.225Z,11.51
2023-09-21T22:36:23.858Z,11.50
2023-09-21T22:38:26.588Z,11.52
2023-09-21T22:40:34.518Z,11.54
2023-09-21T22:42:48.996Z,11.54
2023-09-21T22:44:53.604Z,11.54
2023-09-21T22:46:58.113Z,11.51
2023-09-21T22:49:02.747Z,11.54
2023-09-21T22:51:06.666Z,11.51
2023-09-21T22:53:12.887Z,11.51
2023-09-21T22:55:18.297Z,11.48
2023-09-21T22:57:23.699Z,11.47
2023-09-21T22:59:27.689Z,11.43
2023-09-21T23:01:33.223Z,11.43
2023-09-21T23:03:37.520Z,11.43
2023-09-21T23:05:42.296Z,11.42
2023-09-21T23:07:46.665Z,11.41
2023-09-21T23:09:50.541Z,11.40
2023-09-21T23:11:55.299Z,11.37
2023-09-21T23:14:01.671Z,11.35
2023-09-21T23:16:09.808Z,11.34
2023-09-21T23:18:13.473Z,11.34
2023-09-21T23:20:16.857Z,11.33
2023-09-21T23:22:20.912Z,11.33
2023-09-21T23:24:24.647Z,11.32
2023-09-21T23:26:33.779Z,11.28
2023-09-21T23:28:38.211Z,11.27
2023-09-21T23:30:44.112Z,11.25
2023-09-21T23:32:48.349Z,11.24
2023-09-21T23:34:52.631Z,11.23
2023-09-21T23:36:56.392Z,11.23
2023-09-21T23:39:00.806Z,11.21
2023-09-21T23:41:03.333Z,11.21
2023-09-21T23:43:07.066Z,11.20
2023-09-21T23:45:15.183Z,11.20
2023-09-21T23:47:20.549Z,11.17
2023-09-21T23:49:24.211Z,11.16
2023-09-21T23:51:27.801Z,11.15
2023-09-21T23:53:32.338Z,11.16
2023-09-21T23:55:36.207Z,11.13
2023-09-21T23:57:41.416Z,11.13
2023-09-21T23:59:45.355Z,11.12
